createdAt,value
2017-05-27T00:00:12.887Z,0
2017-05-27T00:01:22.929Z,0
2017-05-27T00:02:32.974Z,0
2017-05-27T00:03:42.690Z,0
2017-05-27T00:04:52.725Z,0
2017-05-27T00:06:02.764Z,0
2017-05-27T00:07:12.811Z,0
2017-05-27T00:08:23.182Z,0
2017-05-27T00:09:33.221Z,0
2017-05-27T00:10:43.583Z,0
2017-05-27T00:11:53.679Z,0
2017-05-27T00:13:04.032Z,0
2017-05-27T00:14:13.761Z,0
2017-05-27T00:15:23.491Z,0
2017-05-27T00:16:33.829Z,0
2017-05-27T00:17:44.176Z,0
2017-05-27T00:18:54.597Z,0
2017-05-27T00:20:04.645Z,0
2017-05-27T00:21:14.682Z,0
2017-05-27T00:22:24.715Z,0
2017-05-27T00:23:35.050Z,0
2017-05-27T00:24:45.097Z,0
2017-05-27T00:25:55.467Z,0
2017-05-27T00:27:05.815Z,0
2017-05-27T00:28:16.186Z,0
2017-05-27T00:29:26.221Z,0
2017-05-27T00:30:36.588Z,0
2017-05-27T00:31:46.626Z,0
2017-05-27T00:32:56.994Z,0
2017-05-27T00:34:07.345Z,0
2017-05-27T00:35:17.393Z,0
2017-05-27T00:36:27.735Z,0
2017-05-27T00:37:38.081Z,0
2017-05-27T00:38:48.427Z,0
2017-05-27T00:39:58.764Z,0
2017-05-27T00:41:09.104Z,0
2017-05-27T00:42:19.362Z,0
2017-05-27T00:43:29.717Z,0
2017-05-27T00:44:40.065Z,0
2017-05-27T00:45:50.115Z,0
2017-05-27T00:47:00.244Z,0
2017-05-27T00:48:10.277Z,0
2017-05-27T00:49:20.625Z,0
2017-05-27T00:50:30.962Z,0
2017-05-27T00:51:41.310Z,0
2017-05-27T00:52:51.407Z,0
2017-05-27T00:54:01.769Z,0
2017-05-27T00:55:11.509Z,0
2017-05-27T00:56:21.878Z,0
2017-05-27T00:57:32.233Z,0
2017-05-27T00:58:42.643Z,0
2017-05-27T00:59:53.000Z,0
2017-05-27T01:01:03.043Z,0
2017-05-27T01:02:13.386Z,0
2017-05-27T01:03:23.429Z,0
2017-05-27T01:04:33.151Z,0
2017-05-27T01:05:43.504Z,0
2017-05-27T01:06:53.851Z,0
2017-05-27T01:08:03.887Z,0
2017-05-27T01:09:13.902Z,0
2017-05-27T01:10:23.979Z,0
2017-05-27T01:11:34.342Z,0
2017-05-27T01:12:44.699Z,0
2017-05-27T01:13:55.049Z,0
2017-05-27T01:15:05.088Z,0
2017-05-27T01:16:15.163Z,0
2017-05-27T01:17:25.505Z,0
2017-05-27T01:18:35.872Z,0
2017-05-27T01:19:46.256Z,0
2017-05-27T01:20:56.592Z,0
2017-05-27T01:22:06.943Z,0
2017-05-27T01:23:17.278Z,0
2017-05-27T01:24:27.651Z,0
2017-05-27T01:25:37.987Z,0
2017-05-27T01:26:48.330Z,0
2017-05-27T01:27:58.736Z,0
2017-05-27T01:29:09.089Z,0
2017-05-27T01:30:19.121Z,0
2017-05-27T01:31:29.494Z,0
2017-05-27T01:32:39.859Z,0
2017-05-27T01:33:50.263Z,0
2017-05-27T01:35:00.293Z,0
2017-05-27T01:36:10.668Z,0
2017-05-27T01:37:21.022Z,0
2017-05-27T01:38:31.059Z,0
2017-05-27T01:39:41.463Z,0
2017-05-27T01:40:51.832Z,0
2017-05-27T01:42:02.179Z,0
2017-05-27T01:43:12.223Z,0
2017-05-27T01:44:22.590Z,0
2017-05-27T01:45:32.943Z,0
2017-05-27T01:46:42.369Z,0
2017-05-27T01:47:52.436Z,0
2017-05-27T01:49:02.474Z,0
2017-05-27T01:50:12.525Z,0
2017-05-27T01:51:22.603Z,0
2017-05-27T01:52:32.954Z,0
2017-05-27T01:53:43.304Z,0
2017-05-27T01:54:53.658Z,0
2017-05-27T01:56:04.003Z,0
2017-05-27T01:57:14.614Z,0
2017-05-27T01:58:24.656Z,0
2017-05-27T01:59:35.009Z,0
2017-05-27T02:00:45.371Z,0
2017-05-27T02:01:55.408Z,0
2017-05-27T02:03:05.755Z,0
2017-05-27T02:04:16.106Z,0
2017-05-27T02:05:26.457Z,0
2017-05-27T02:06:36.485Z,0
2017-05-27T02:07:46.846Z,0
2017-05-27T02:08:57.279Z,0
2017-05-27T02:10:07.337Z,0
2017-05-27T02:11:17.689Z,0
2017-05-27T02:12:28.111Z,0
2017-05-27T02:13:38.459Z,0
2017-05-27T02:14:48.513Z,0
2017-05-27T02:15:58.869Z,0
2017-05-27T02:17:08.896Z,0
2017-05-27T02:18:18.942Z,0
2017-05-27T02:19:29.016Z,0
2017-05-27T02:20:39.420Z,0
2017-05-27T02:21:49.764Z,0
2017-05-27T02:23:00.112Z,0
2017-05-27T02:24:10.148Z,0
2017-05-27T02:25:20.492Z,0
2017-05-27T02:26:30.523Z,0
2017-05-27T02:27:40.558Z,0
2017-05-27T02:28:50.913Z,0
2017-05-27T02:30:00.950Z,0
2017-05-27T02:31:10.687Z,0
2017-05-27T02:32:21.097Z,0
2017-05-27T02:33:31.451Z,0
2017-05-27T02:34:41.804Z,0
2017-05-27T02:35:52.176Z,0
2017-05-27T02:37:02.510Z,0
2017-05-27T02:38:12.220Z,0
2017-05-27T02:39:22.255Z,0
2017-05-27T02:40:32.296Z,0
2017-05-27T02:41:42.339Z,0
2017-05-27T02:42:52.688Z,0
2017-05-27T02:44:03.045Z,0
2017-05-27T02:45:13.443Z,0
2017-05-27T02:46:23.790Z,0
2017-05-27T02:47:34.136Z,0
2017-05-27T02:48:44.169Z,0
2017-05-27T02:49:54.549Z,0
2017-05-27T02:51:04.605Z,0
2017-05-27T02:52:14.953Z,0
2017-05-27T02:53:24.979Z,0
2017-05-27T02:54:35.027Z,0
2017-05-27T02:55:44.490Z,0
2017-05-27T02:56:54.825Z,0
2017-05-27T02:58:05.185Z,5
2017-05-27T02:59:15.539Z,5
2017-05-27T03:00:25.891Z,5
2017-05-27T03:01:36.539Z,5
2017-05-27T03:33:05.041Z,35
2017-05-27T03:34:15.077Z,40
2017-05-27T03:35:25.419Z,40
2017-05-27T03:36:35.760Z,40
2017-05-27T03:37:46.103Z,40
2017-05-27T03:38:56.499Z,45
2017-05-27T03:40:06.526Z,45
2017-05-27T03:41:16.873Z,45
2017-05-27T03:42:27.220Z,45
2017-05-27T03:43:37.551Z,50
2017-05-27T03:44:47.644Z,50
2017-05-27T03:45:57.048Z,50
2017-05-27T03:47:07.407Z,55
2017-05-27T03:48:17.768Z,55
2017-05-27T03:49:28.121Z,55
2017-05-27T03:50:37.900Z,55
2017-05-27T03:51:48.270Z,60
2017-05-27T03:52:58.623Z,60
2017-05-27T03:54:08.973Z,60
2017-05-27T03:55:19.318Z,65
2017-05-27T03:56:29.122Z,65
2017-05-27T03:57:39.472Z,65
2017-05-27T03:58:49.836Z,65
2017-05-27T04:00:00.190Z,70
2017-05-27T04:01:10.227Z,70
2017-05-27T04:02:20.004Z,70
2017-05-27T04:03:30.351Z,70
2017-05-27T04:04:40.711Z,70
2017-05-27T04:05:51.068Z,70
2017-05-27T04:07:01.113Z,75
2017-05-27T04:08:11.511Z,75
2017-05-27T04:09:21.854Z,75
2017-05-27T04:10:32.186Z,75
2017-05-27T04:11:42.528Z,80
2017-05-27T04:12:52.867Z,80
2017-05-27T04:14:02.601Z,80
2017-05-27T04:15:12.959Z,85
2017-05-27T04:16:23.303Z,85
2017-05-27T04:17:33.643Z,125
2017-05-27T04:18:44.015Z,335
2017-05-27T04:19:54.388Z,455
2017-05-27T04:21:04.749Z,450
2017-05-27T04:22:14.784Z,490
2017-05-27T04:23:25.176Z,525
2017-05-27T04:24:35.536Z,510
2017-05-27T04:25:45.563Z,525
2017-05-27T04:26:55.907Z,535
2017-05-27T04:28:05.957Z,520
2017-05-27T04:29:15.995Z,515
2017-05-27T04:30:26.338Z,515
2017-05-27T04:31:36.378Z,530
2017-05-27T04:32:46.755Z,520
2017-05-27T04:33:56.801Z,525
2017-05-27T04:35:07.149Z,550
2017-05-27T04:36:17.513Z,535
2017-05-27T04:37:27.546Z,540
2017-05-27T04:38:37.585Z,535
2017-05-27T04:39:47.990Z,555
2017-05-27T04:40:58.029Z,555
2017-05-27T04:42:07.750Z,560
2017-05-27T04:43:18.116Z,565
2017-05-27T04:44:28.472Z,550
2017-05-27T04:45:38.870Z,540
2017-05-27T04:46:48.600Z,555
2017-05-27T04:47:58.641Z,565
2017-05-27T04:49:09.004Z,555
2017-05-27T04:50:19.355Z,555
2017-05-27T04:51:29.774Z,540
2017-05-27T04:52:39.838Z,555
2017-05-27T04:53:50.208Z,590
2017-05-27T04:55:00.554Z,570
2017-05-27T04:56:10.616Z,555
2017-05-27T04:57:20.922Z,575
2017-05-27T04:58:30.960Z,565
2017-05-27T04:59:41.327Z,575
2017-05-27T05:00:51.372Z,580
2017-05-27T05:02:01.409Z,565
2017-05-27T05:03:11.766Z,565
2017-05-27T05:04:22.132Z,570
2017-05-27T05:05:32.476Z,555
2017-05-27T05:06:42.839Z,570
2017-05-27T05:07:53.248Z,575
2017-05-27T05:09:03.675Z,565
2017-05-27T05:10:14.032Z,565
2017-05-27T05:11:24.385Z,560
2017-05-27T05:12:34.443Z,545
2017-05-27T05:13:44.824Z,540
2017-05-27T05:14:55.226Z,530
2017-05-27T05:16:05.197Z,535
2017-05-27T05:17:15.549Z,545
2017-05-27T05:18:25.593Z,540
2017-05-27T05:19:35.954Z,525
2017-05-27T05:20:46.357Z,515
2017-05-27T05:21:56.709Z,510
2017-05-27T05:23:07.070Z,505
2017-05-27T05:24:17.176Z,520
2017-05-27T05:25:27.234Z,515
2017-05-27T05:26:37.328Z,500
2017-05-27T05:27:47.695Z,490
2017-05-27T05:28:58.057Z,485
2017-05-27T05:30:08.417Z,470
2017-05-27T05:31:18.760Z,445
2017-05-27T05:32:29.128Z,420
2017-05-27T05:33:39.472Z,400
2017-05-27T05:34:49.822Z,385
2017-05-27T05:36:00.179Z,375
2017-05-27T05:37:10.532Z,365
2017-05-27T05:38:20.623Z,360
2017-05-27T05:39:30.738Z,355
2017-05-27T05:40:41.115Z,355
2017-05-27T05:41:51.528Z,355
2017-05-27T05:43:01.884Z,355
2017-05-27T05:44:12.287Z,355
2017-05-27T05:45:22.640Z,360
2017-05-27T05:46:32.994Z,360
2017-05-27T05:47:42.729Z,365
2017-05-27T05:48:53.085Z,375
2017-05-27T05:50:03.494Z,395
2017-05-27T05:51:13.541Z,395
2017-05-27T05:52:23.888Z,380
2017-05-27T05:53:34.235Z,380
2017-05-27T05:54:44.291Z,380
2017-05-27T05:55:54.331Z,375
2017-05-27T05:57:04.687Z,375
2017-05-27T05:58:15.060Z,380
2017-05-27T05:59:25.123Z,380
2017-05-27T06:00:35.490Z,375
2017-05-27T06:01:45.858Z,370
2017-05-27T06:02:56.229Z,365
2017-05-27T06:04:05.965Z,365
2017-05-27T06:05:16.329Z,365
2017-05-27T06:06:26.691Z,365
2017-05-27T06:07:37.166Z,370
2017-05-27T06:08:47.208Z,365
2017-05-27T06:09:57.568Z,365
2017-05-27T06:11:07.306Z,360
2017-05-27T06:12:17.655Z,345
2017-05-27T06:13:28.014Z,280
2017-05-27T06:14:38.405Z,185
2017-05-27T06:15:48.441Z,160
2017-05-27T06:16:58.477Z,165
2017-05-27T06:18:08.837Z,160
2017-05-27T06:19:18.923Z,175
2017-05-27T06:20:29.287Z,205
2017-05-27T06:21:39.636Z,255
2017-05-27T06:22:49.678Z,305
2017-05-27T06:24:00.031Z,305
2017-05-27T06:25:10.436Z,305
2017-05-27T06:26:20.789Z,305
2017-05-27T06:27:30.514Z,305
2017-05-27T06:28:41.115Z,310
2017-05-27T06:29:51.154Z,300
2017-05-27T06:31:01.197Z,295
2017-05-27T06:32:11.246Z,285
2017-05-27T06:33:21.598Z,280
2017-05-27T06:34:31.639Z,285
2017-05-27T06:35:42.001Z,280
2017-05-27T06:36:52.348Z,275
2017-05-27T06:38:02.708Z,270
2017-05-27T06:39:13.069Z,265
2017-05-27T06:40:23.422Z,265
2017-05-27T06:41:33.795Z,265
2017-05-27T06:42:43.843Z,265
2017-05-27T06:43:54.208Z,255
2017-05-27T06:45:04.261Z,245
2017-05-27T06:46:14.604Z,245
2017-05-27T06:47:24.977Z,240
2017-05-27T06:48:35.339Z,235
2017-05-27T06:49:45.407Z,230
2017-05-27T06:50:55.750Z,225
2017-05-27T06:52:05.792Z,220
2017-05-27T06:53:15.520Z,215
2017-05-27T06:54:25.610Z,215
2017-05-27T06:55:35.673Z,205
2017-05-27T06:56:45.759Z,205
2017-05-27T06:57:55.805Z,200
2017-05-27T06:59:06.172Z,195
2017-05-27T07:00:16.525Z,190
2017-05-27T07:01:26.880Z,195
2017-05-27T07:02:36.291Z,185
2017-05-27T07:03:46.660Z,180
2017-05-27T07:04:56.725Z,175
2017-05-27T07:06:06.512Z,170
2017-05-27T07:07:16.870Z,170
2017-05-27T07:08:27.217Z,170
2017-05-27T07:09:37.568Z,170
2017-05-27T07:10:47.916Z,170
2017-05-27T07:11:58.336Z,170
2017-05-27T07:13:08.693Z,180
2017-05-27T07:14:19.063Z,175
2017-05-27T07:15:29.425Z,175
2017-05-27T07:16:39.788Z,175
2017-05-27T07:17:49.886Z,175
2017-05-27T07:18:59.927Z,175
2017-05-27T07:20:09.979Z,175
2017-05-27T07:21:20.321Z,175
2017-05-27T07:22:30.683Z,175
2017-05-27T07:23:41.087Z,175
2017-05-27T07:24:51.507Z,180
2017-05-27T07:26:01.874Z,175
2017-05-27T07:27:11.920Z,180
2017-05-27T07:28:21.980Z,180
2017-05-27T07:29:32.373Z,175
2017-05-27T07:30:42.435Z,180
2017-05-27T07:31:52.902Z,180
2017-05-27T07:33:03.278Z,180
2017-05-27T07:34:13.626Z,180
2017-05-27T07:35:24.035Z,180
2017-05-27T07:36:34.401Z,180
2017-05-27T07:37:44.747Z,180
2017-05-27T07:38:55.113Z,180
2017-05-27T07:40:05.491Z,180
2017-05-27T07:41:15.901Z,180
2017-05-27T07:42:26.245Z,185
2017-05-27T07:43:36.004Z,185
2017-05-27T07:44:46.371Z,180
2017-05-27T07:45:56.429Z,180
2017-05-27T07:47:06.836Z,180
2017-05-27T07:48:17.177Z,180
2017-05-27T07:49:27.548Z,180
2017-05-27T07:50:37.595Z,180
2017-05-27T07:51:47.642Z,185
2017-05-27T07:52:57.399Z,185
2017-05-27T07:54:07.790Z,185
2017-05-27T07:55:18.326Z,185
2017-05-27T07:56:28.686Z,185
2017-05-27T07:57:38.717Z,185
2017-05-27T07:58:48.487Z,185
2017-05-27T07:59:58.840Z,185
2017-05-27T08:01:08.889Z,185
2017-05-27T08:02:18.619Z,185
2017-05-27T08:03:28.972Z,185
2017-05-27T08:04:39.376Z,185
2017-05-27T08:05:49.755Z,185
2017-05-27T08:07:00.154Z,185
2017-05-27T08:08:10.212Z,190
2017-05-27T08:09:20.566Z,190
2017-05-27T08:10:30.622Z,190
2017-05-27T08:11:40.975Z,190
2017-05-27T08:12:51.002Z,190
2017-05-27T08:14:01.102Z,190
2017-05-27T08:15:10.841Z,190
2017-05-27T08:16:20.939Z,190
2017-05-27T08:17:30.978Z,190
2017-05-27T08:18:41.340Z,190
2017-05-27T08:19:51.397Z,190
2017-05-27T08:21:01.757Z,190
2017-05-27T08:22:11.816Z,190
2017-05-27T08:23:21.549Z,195
2017-05-27T08:24:31.922Z,195
2017-05-27T08:25:42.281Z,195
2017-05-27T08:26:52.344Z,195
2017-05-27T08:28:02.074Z,195
2017-05-27T08:29:12.139Z,195
2017-05-27T08:30:22.504Z,195
2017-05-27T08:31:32.860Z,200
2017-05-27T08:32:43.207Z,210
2017-05-27T08:33:53.624Z,215
2017-05-27T08:35:03.684Z,220
2017-05-27T08:36:14.035Z,225
2017-05-27T08:37:24.392Z,230
2017-05-27T08:38:34.751Z,230
2017-05-27T08:39:45.167Z,235
2017-05-27T08:40:55.221Z,235
2017-05-27T08:42:05.576Z,225
2017-05-27T08:43:15.941Z,235
2017-05-27T08:44:25.993Z,230
2017-05-27T08:45:35.723Z,235
2017-05-27T08:46:46.086Z,240
2017-05-27T08:47:56.455Z,260
2017-05-27T08:49:06.888Z,270
2017-05-27T08:50:16.632Z,275
2017-05-27T08:51:27.046Z,280
2017-05-27T08:52:37.083Z,275
2017-05-27T08:53:47.439Z,265
2017-05-27T08:54:57.171Z,185
2017-05-27T08:56:07.537Z,175
2017-05-27T08:57:17.954Z,175
2017-05-27T08:58:28.316Z,265
2017-05-27T08:59:38.356Z,275
2017-05-27T09:00:48.395Z,200
2017-05-27T09:01:58.737Z,280
2017-05-27T09:03:09.157Z,310
2017-05-27T09:04:18.901Z,320
2017-05-27T09:05:29.261Z,325
2017-05-27T09:06:39.628Z,315
2017-05-27T09:07:49.981Z,240
2017-05-27T09:09:00.403Z,250
2017-05-27T09:10:10.772Z,325
2017-05-27T09:11:21.131Z,320
2017-05-27T09:12:31.511Z,235
2017-05-27T09:13:41.590Z,230
2017-05-27T09:14:52.006Z,290
2017-05-27T09:16:02.383Z,230
2017-05-27T09:17:12.747Z,220
2017-05-27T09:18:23.096Z,215
2017-05-27T09:19:32.845Z,215
2017-05-27T09:20:43.254Z,305
2017-05-27T09:21:53.302Z,315
2017-05-27T09:23:03.699Z,325
2017-05-27T09:24:14.065Z,325
2017-05-27T09:25:23.495Z,320
2017-05-27T09:26:33.616Z,315
2017-05-27T09:27:43.658Z,275
2017-05-27T09:28:54.020Z,290
2017-05-27T09:30:04.376Z,215
2017-05-27T09:31:14.438Z,215
2017-05-27T09:32:24.518Z,210
2017-05-27T09:33:34.872Z,205
2017-05-27T09:34:45.232Z,190
2017-05-27T09:35:55.581Z,180
2017-05-27T09:37:05.943Z,180
2017-05-27T09:38:16.004Z,250
2017-05-27T09:39:26.385Z,210
2017-05-27T09:40:36.769Z,175
2017-05-27T09:41:46.828Z,170
2017-05-27T09:42:57.197Z,170
2017-05-27T09:44:07.544Z,265
2017-05-27T09:45:17.603Z,260
2017-05-27T09:46:27.960Z,260
2017-05-27T09:47:38.316Z,260
2017-05-27T09:48:48.690Z,260
2017-05-27T09:49:59.127Z,270
2017-05-27T09:51:09.178Z,265
2017-05-27T09:52:19.530Z,265
2017-05-27T09:53:29.884Z,265
2017-05-27T09:54:39.935Z,270
2017-05-27T09:55:50.016Z,260
2017-05-27T09:57:00.398Z,255
2017-05-27T09:58:10.759Z,260
2017-05-27T09:59:21.004Z,260
2017-05-27T10:00:30.736Z,260
2017-05-27T10:01:40.220Z,260
2017-05-27T10:02:50.613Z,265
2017-05-27T10:04:00.680Z,275
2017-05-27T10:05:10.732Z,285
2017-05-27T10:06:21.144Z,295
2017-05-27T10:07:31.560Z,300
2017-05-27T10:08:41.625Z,300
2017-05-27T10:09:51.995Z,295
2017-05-27T10:11:02.051Z,285
2017-05-27T10:12:12.414Z,275
2017-05-27T10:13:22.779Z,260
2017-05-27T10:14:32.194Z,255
2017-05-27T10:15:42.291Z,145
2017-05-27T10:16:52.630Z,145
2017-05-27T10:18:03.030Z,145
2017-05-27T10:19:13.447Z,155
2017-05-27T10:20:23.796Z,275
2017-05-27T10:21:33.848Z,270
2017-05-27T10:22:43.886Z,270
2017-05-27T10:23:54.247Z,270
2017-05-27T10:25:04.654Z,275
2017-05-27T10:26:14.703Z,270
2017-05-27T10:27:25.095Z,275
2017-05-27T10:28:35.465Z,275
2017-05-27T10:29:45.840Z,270
2017-05-27T10:30:56.191Z,270
2017-05-27T10:32:06.562Z,270
2017-05-27T10:33:16.925Z,160
2017-05-27T10:34:27.281Z,155
2017-05-27T10:35:37.324Z,165
2017-05-27T10:36:47.735Z,290
2017-05-27T10:37:57.789Z,290
2017-05-27T10:39:08.163Z,290
2017-05-27T10:40:18.515Z,295
2017-05-27T10:41:28.565Z,290
2017-05-27T10:42:38.972Z,295
2017-05-27T10:43:49.323Z,285
2017-05-27T10:44:59.670Z,280
2017-05-27T10:46:09.398Z,265
2017-05-27T10:47:19.765Z,270
2017-05-27T10:48:29.552Z,275
2017-05-27T10:49:39.937Z,280
2017-05-27T10:50:49.994Z,280
2017-05-27T10:52:00.062Z,285
2017-05-27T10:53:10.441Z,290
2017-05-27T10:54:20.856Z,290
2017-05-27T10:55:31.224Z,300
2017-05-27T10:56:41.588Z,300
2017-05-27T10:57:51.951Z,295
2017-05-27T10:59:02.313Z,300
2017-05-27T11:00:12.363Z,305
2017-05-27T11:01:22.719Z,320
2017-05-27T11:02:33.102Z,325
2017-05-27T11:03:42.829Z,335
2017-05-27T11:04:52.869Z,335
2017-05-27T11:06:02.965Z,335
2017-05-27T11:07:13.317Z,330
2017-05-27T11:08:23.355Z,320
2017-05-27T11:09:33.394Z,290
2017-05-27T11:10:43.784Z,310
2017-05-27T11:11:53.524Z,185
2017-05-27T11:13:03.893Z,190
2017-05-27T11:14:13.944Z,245
2017-05-27T11:15:24.297Z,270
2017-05-27T11:16:34.649Z,315
2017-05-27T11:17:45.057Z,310
2017-05-27T11:18:55.494Z,305
2017-05-27T11:20:05.849Z,305
2017-05-27T11:21:15.899Z,305
2017-05-27T11:22:26.247Z,210
2017-05-27T11:23:36.673Z,315
2017-05-27T11:24:47.019Z,315
2017-05-27T11:25:57.067Z,315
2017-05-27T11:27:07.429Z,315
2017-05-27T11:28:17.796Z,320
2017-05-27T11:29:28.151Z,320
2017-05-27T11:30:38.522Z,320
2017-05-27T11:31:48.886Z,315
2017-05-27T11:32:59.256Z,310
2017-05-27T11:34:09.614Z,220
2017-05-27T11:35:20.013Z,205
2017-05-27T11:36:30.376Z,325
2017-05-27T11:37:40.739Z,325
2017-05-27T11:38:51.347Z,320
2017-05-27T11:40:01.404Z,315
2017-05-27T11:41:11.815Z,195
2017-05-27T11:42:22.190Z,205
2017-05-27T11:43:32.605Z,200
2017-05-27T11:44:42.968Z,210
2017-05-27T11:45:52.700Z,230
2017-05-27T11:47:03.111Z,270
2017-05-27T11:48:12.828Z,375
2017-05-27T11:49:23.176Z,375
2017-05-27T11:50:33.746Z,365
2017-05-27T11:51:43.785Z,350
2017-05-27T11:52:54.194Z,305
2017-05-27T11:54:04.571Z,325
2017-05-27T11:55:14.930Z,265
2017-05-27T11:56:24.984Z,210
2017-05-27T11:57:35.355Z,210
2017-05-27T11:58:45.706Z,210
2017-05-27T11:59:56.100Z,210
2017-05-27T12:01:06.154Z,215
2017-05-27T12:02:16.525Z,215
2017-05-27T12:03:26.891Z,210
2017-05-27T12:04:36.986Z,325
2017-05-27T12:05:47.044Z,315
2017-05-27T12:06:57.432Z,310
2017-05-27T12:08:07.808Z,275
2017-05-27T12:09:18.153Z,300
2017-05-27T12:10:28.529Z,250
2017-05-27T12:11:38.893Z,320
2017-05-27T12:12:48.934Z,335
2017-05-27T12:13:59.287Z,340
2017-05-27T12:15:09.657Z,345
2017-05-27T12:16:20.014Z,350
2017-05-27T12:17:30.077Z,345
2017-05-27T12:18:40.122Z,335
2017-05-27T12:19:50.173Z,335
2017-05-27T12:21:00.237Z,325
2017-05-27T12:22:10.653Z,325
2017-05-27T12:23:20.704Z,315
2017-05-27T12:24:31.087Z,310
2017-05-27T12:25:41.451Z,310
2017-05-27T12:26:51.832Z,305
2017-05-27T12:28:02.203Z,305
2017-05-27T12:29:12.560Z,305
2017-05-27T12:30:22.925Z,295
2017-05-27T12:31:33.292Z,190
2017-05-27T12:32:43.337Z,170
2017-05-27T12:33:53.718Z,165
2017-05-27T12:35:03.822Z,255
2017-05-27T12:36:14.179Z,165
2017-05-27T12:37:24.229Z,165
2017-05-27T12:38:34.581Z,275
2017-05-27T12:39:44.936Z,265
2017-05-27T12:40:55.290Z,265
2017-05-27T12:42:05.337Z,265
2017-05-27T12:43:15.693Z,260
2017-05-27T12:44:26.052Z,265
2017-05-27T12:45:36.403Z,265
2017-05-27T12:46:46.750Z,270
2017-05-27T12:47:56.786Z,275
2017-05-27T12:49:07.157Z,275
2017-05-27T12:50:17.215Z,275
2017-05-27T12:51:27.575Z,285
2017-05-27T12:52:37.698Z,285
2017-05-27T12:53:48.051Z,300
2017-05-27T12:54:58.405Z,310
2017-05-27T12:56:08.133Z,315
2017-05-27T12:57:18.494Z,315
2017-05-27T12:58:28.932Z,315
2017-05-27T12:59:38.993Z,310
2017-05-27T13:00:49.359Z,290
2017-05-27T13:01:59.702Z,275
2017-05-27T13:03:10.065Z,260
2017-05-27T13:04:20.176Z,165
2017-05-27T13:05:30.223Z,195
2017-05-27T13:06:40.579Z,145
2017-05-27T13:07:50.625Z,140
2017-05-27T13:09:00.662Z,140
2017-05-27T13:10:11.073Z,140
2017-05-27T13:11:21.137Z,145
2017-05-27T13:12:31.527Z,250
2017-05-27T13:13:41.890Z,175
2017-05-27T13:14:52.256Z,220
2017-05-27T13:16:02.676Z,250
2017-05-27T13:17:13.034Z,255
2017-05-27T13:18:23.388Z,250
2017-05-27T13:19:33.439Z,250
2017-05-27T13:20:43.814Z,260
2017-05-27T13:21:53.913Z,255
2017-05-27T13:23:04.284Z,250
2017-05-27T13:24:14.352Z,250
2017-05-27T13:25:24.705Z,245
2017-05-27T13:26:35.055Z,245
2017-05-27T13:27:45.145Z,245
2017-05-27T13:28:55.513Z,250
2017-05-27T13:30:05.577Z,245
2017-05-27T13:31:15.932Z,245
2017-05-27T13:32:25.978Z,245
2017-05-27T13:33:36.071Z,240
2017-05-27T13:34:46.130Z,245
2017-05-27T13:35:56.177Z,240
2017-05-27T13:37:06.601Z,240
2017-05-27T13:38:16.663Z,245
2017-05-27T13:39:27.074Z,245
2017-05-27T13:40:37.130Z,245
2017-05-27T13:41:46.901Z,245
2017-05-27T13:42:56.942Z,160
2017-05-27T13:44:07.004Z,250
2017-05-27T13:45:17.426Z,245
2017-05-27T13:46:27.799Z,245
2017-05-27T13:47:38.167Z,245
2017-05-27T13:48:48.524Z,235
2017-05-27T13:49:58.886Z,230
2017-05-27T13:51:09.262Z,230
2017-05-27T13:52:19.631Z,225
2017-05-27T13:53:30.160Z,225
2017-05-27T13:54:40.224Z,225
2017-05-27T13:55:50.593Z,220
2017-05-27T13:57:00.957Z,220
2017-05-27T13:58:10.382Z,220
2017-05-27T13:59:20.452Z,220
2017-05-27T14:00:30.851Z,220
2017-05-27T14:01:41.225Z,215
2017-05-27T14:02:51.574Z,215
2017-05-27T14:04:01.621Z,215
2017-05-27T14:05:11.979Z,215
2017-05-27T14:06:22.021Z,210
2017-05-27T14:07:32.073Z,210
2017-05-27T14:08:42.132Z,210
2017-05-27T14:09:52.179Z,210
2017-05-27T14:11:02.240Z,215
2017-05-27T14:12:12.296Z,210
2017-05-27T14:13:22.352Z,205
2017-05-27T14:14:32.715Z,205
2017-05-27T14:15:43.078Z,200
2017-05-27T14:16:53.449Z,120
2017-05-27T14:18:03.816Z,170
2017-05-27T14:19:13.940Z,130
2017-05-27T14:20:24.541Z,125
2017-05-27T14:21:34.884Z,200
2017-05-27T14:22:44.611Z,205
2017-05-27T14:23:54.966Z,200
2017-05-27T14:25:05.381Z,200
2017-05-27T14:26:15.757Z,200
2017-05-27T14:27:26.108Z,200
2017-05-27T14:28:36.476Z,195
2017-05-27T14:29:46.537Z,200
2017-05-27T14:30:56.906Z,195
2017-05-27T14:32:07.265Z,195
2017-05-27T14:33:17.644Z,195
2017-05-27T14:34:27.687Z,195
2017-05-27T14:35:38.053Z,195
2017-05-27T14:36:48.470Z,190
2017-05-27T14:37:58.833Z,190
2017-05-27T14:39:09.193Z,190
2017-05-27T14:40:19.566Z,190
2017-05-27T14:41:29.937Z,190
2017-05-27T14:42:40.350Z,190
2017-05-27T14:43:50.401Z,190
2017-05-27T14:45:00.772Z,185
2017-05-27T14:46:11.126Z,185
2017-05-27T14:47:21.510Z,185
2017-05-27T14:48:31.669Z,185
2017-05-27T14:49:42.051Z,180
2017-05-27T14:50:52.095Z,180
2017-05-27T14:52:02.454Z,180
2017-05-27T14:53:12.521Z,180
2017-05-27T14:54:22.879Z,180
2017-05-27T14:55:33.218Z,180
2017-05-27T14:56:43.280Z,175
2017-05-27T14:57:53.644Z,175
2017-05-27T14:59:03.997Z,175
2017-05-27T15:00:14.369Z,175
2017-05-27T15:01:24.741Z,175
2017-05-27T15:02:35.112Z,175
2017-05-27T15:03:45.475Z,175
2017-05-27T15:04:55.524Z,175
2017-05-27T15:06:05.917Z,170
2017-05-27T15:07:16.037Z,170
2017-05-27T15:08:26.095Z,170
2017-05-27T15:09:36.447Z,170
2017-05-27T15:10:46.796Z,170
2017-05-27T15:11:56.858Z,170
2017-05-27T15:13:07.273Z,165
2017-05-27T15:14:17.635Z,165
2017-05-27T15:15:27.992Z,165
2017-05-27T15:16:38.374Z,165
2017-05-27T15:17:48.773Z,165
2017-05-27T15:18:58.829Z,165
2017-05-27T15:20:08.896Z,165
2017-05-27T15:21:18.942Z,165
2017-05-27T15:22:29.303Z,160
2017-05-27T15:23:39.669Z,160
2017-05-27T15:24:50.034Z,160
2017-05-27T15:26:00.075Z,160
2017-05-27T15:27:10.453Z,160
2017-05-27T15:28:20.814Z,160
2017-05-27T15:29:31.181Z,160
2017-05-27T15:30:41.539Z,155
2017-05-27T15:31:51.581Z,160
2017-05-27T15:33:01.946Z,155
2017-05-27T15:34:11.974Z,155
2017-05-27T15:35:22.383Z,155
2017-05-27T15:36:32.434Z,155
2017-05-27T15:37:42.793Z,155
2017-05-27T15:38:52.867Z,155
2017-05-27T15:40:03.229Z,150
2017-05-27T15:41:13.601Z,150
2017-05-27T15:42:23.977Z,150
2017-05-27T15:43:34.328Z,155
2017-05-27T15:44:44.943Z,150
2017-05-27T15:45:55.542Z,150
2017-05-27T15:47:05.925Z,150
2017-05-27T15:48:15.983Z,150
2017-05-27T15:49:26.051Z,150
2017-05-27T15:50:36.417Z,150
2017-05-27T15:51:46.765Z,150
2017-05-27T15:52:56.811Z,150
2017-05-27T15:54:06.855Z,150
2017-05-27T15:55:17.210Z,145
2017-05-27T15:56:27.564Z,145
2017-05-27T15:57:37.613Z,145
2017-05-27T15:58:48.084Z,145
2017-05-27T15:59:58.523Z,145
2017-05-27T16:01:08.882Z,145
2017-05-27T16:02:19.247Z,140
2017-05-27T16:03:29.665Z,140
2017-05-27T16:04:40.084Z,140
2017-05-27T16:05:50.455Z,140
2017-05-27T16:07:00.805Z,135
2017-05-27T16:08:10.863Z,135
2017-05-27T16:09:20.920Z,135
2017-05-27T16:10:31.338Z,135
2017-05-27T16:11:41.698Z,130
2017-05-27T16:12:52.079Z,130
2017-05-27T16:14:02.454Z,130
2017-05-27T16:15:12.815Z,130
2017-05-27T16:16:23.187Z,125
2017-05-27T16:17:33.572Z,125
2017-05-27T16:18:43.936Z,125
2017-05-27T16:19:53.999Z,130
2017-05-27T16:21:04.058Z,125
2017-05-27T16:22:14.478Z,125
2017-05-27T16:23:24.853Z,125
2017-05-27T16:24:35.234Z,125
2017-05-27T16:25:45.599Z,120
2017-05-27T16:26:55.965Z,120
2017-05-27T16:28:06.013Z,120
2017-05-27T16:29:16.423Z,120
2017-05-27T16:30:26.790Z,120
2017-05-27T16:31:37.164Z,120
2017-05-27T16:32:47.232Z,120
2017-05-27T16:33:57.653Z,120
2017-05-27T16:35:08.010Z,115
2017-05-27T16:36:18.060Z,115
2017-05-27T16:37:28.482Z,115
2017-05-27T16:38:38.855Z,120
2017-05-27T16:39:48.906Z,115
2017-05-27T16:40:59.263Z,110
2017-05-27T16:42:09.629Z,110
2017-05-27T16:43:20.019Z,110
2017-05-27T16:44:30.401Z,110
2017-05-27T16:45:40.801Z,110
2017-05-27T16:46:50.863Z,105
2017-05-27T16:48:00.914Z,105
2017-05-27T16:49:10.642Z,105
2017-05-27T16:50:20.670Z,105
2017-05-27T16:51:30.772Z,105